Time;durP1;ratioP1;P1;durP2;ratioP2;P2;SDS_P1;SDS_P2;PMS_P1;PMS_P2;Temp;Humidity;BMP_temperature;BMP_pressure;BME280_temperature;BME280_humidity;BME280_pressure;Samples;Min_cycle;Max_cycle;Signal;HPM_P1;HPM_P2
2021/06/08 00:02:11;;;;;;;7.85;5.65;;;18.30;75.60;;;;;;6273509;22;20011;-81
2021/06/08 00:04:37;;;;;;;5.43;4.93;;;18.20;75.70;;;;;;6271987;22;20007;-82
2021/06/08 00:07:03;;;;;;;3.15;2.60;;;18.20;75.90;;;;;;6274789;22;20007;-82
2021/06/08 00:09:32;;;;;;;3.08;2.78;;;18.10;75.90;;;;;;6274643;22;20090;-81
2021/06/08 00:11:57;;;;;;;4.28;3.15;;;18.10;76.00;;;;;;6272560;22;20007;-81
2021/06/08 00:14:23;;;;;;;6.55;2.80;;;18.00;75.90;;;;;;6272924;22;20004;-81
2021/06/08 00:16:49;;;;;;;7.07;2.92;;;18.00;76.00;;;;;;6272890;22;20006;-81
2021/06/08 00:19:14;;;;;;;3.10;2.83;;;18.00;76.10;;;;;;6272561;22;20011;-81
2021/06/08 00:21:40;;;;;;;6.25;3.80;;;18.00;76.00;;;;;;6274415;22;20761;-81
2021/06/08 00:24:06;;;;;;;4.18;3.33;;;17.90;76.10;;;;;;6272419;22;20058;-80
2021/06/08 00:26:33;;;;;;;3.25;2.85;;;17.90;76.00;;;;;;6273591;22;19995;-81
2021/06/08 00:28:59;;;;;;;4.82;2.88;;;17.90;75.90;;;;;;6273637;22;20004;-81
2021/06/08 00:31:25;;;;;;;10.00;3.70;;;17.80;75.90;;;;;;6276660;22;20058;-81
2021/06/08 00:33:53;;;;;;;4.80;2.90;;;17.90;76.10;;;;;;6274311;22;19996;-80
2021/06/08 00:36:18;;;;;;;6.80;2.75;;;17.80;76.00;;;;;;6275700;22;20010;-81
2021/06/08 00:38:44;;;;;;;5.13;3.08;;;17.80;75.90;;;;;;6275087;22;20390;-81
2021/06/08 00:41:11;;;;;;;3.55;3.00;;;17.80;75.90;;;;;;6276539;22;20075;-81
2021/06/08 00:43:37;;;;;;;6.13;3.00;;;17.70;76.00;;;;;;6273596;22;20030;-82
2021/06/08 00:46:03;;;;;;;5.45;2.45;;;17.70;76.70;;;;;;6274072;22;20342;-81
2021/06/08 00:48:29;;;;;;;3.92;2.97;;;17.70;76.20;;;;;;6274658;22;20000;-81
2021/06/08 00:50:55;;;;;;;4.53;2.53;;;17.80;76.00;;;;;;6274553;22;20454;-81
2021/06/08 00:53:21;;;;;;;5.28;3.03;;;17.70;75.80;;;;;;6274116;22;20334;-81
2021/06/08 00:55:46;;;;;;;4.05;2.92;;;17.70;76.00;;;;;;6276432;22;20008;-81
2021/06/08 00:58:12;;;;;;;4.20;2.70;;;17.70;76.10;;;;;;6274852;22;20026;-81
2021/06/08 01:00:38;;;;;;;3.95;2.63;;;17.70;76.00;;;;;;6273668;22;20039;-81
2021/06/08 01:03:04;;;;;;;6.45;2.72;;;17.70;76.00;;;;;;6274086;22;20007;-81
2021/06/08 01:05:30;;;;;;;3.47;3.17;;;17.70;76.00;;;;;;6275794;22;20015;-81
2021/06/08 01:07:56;;;;;;;4.75;2.83;;;17.70;76.10;;;;;;6273687;22;20338;-81
2021/06/08 01:10:22;;;;;;;6.03;2.22;;;17.60;76.10;;;;;;6275568;22;19999;-81
2021/06/08 01:12:47;;;;;;;3.97;2.40;;;17.60;76.10;;;;;;6273790;22;20042;-81
2021/06/08 01:15:13;;;;;;;5.28;2.40;;;17.50;76.10;;;;;;6274184;22;20038;-81
2021/06/08 01:17:40;;;;;;;5.40;2.38;;;17.50;76.10;;;;;;6275448;22;20058;-81
2021/06/08 01:20:08;;;;;;;8.27;2.55;;;17.50;76.00;;;;;;6274314;22;20076;-81
2021/06/08 01:22:34;;;;;;;3.80;2.20;;;17.50;75.80;;;;;;6273742;22;20008;-81
2021/06/08 01:25:00;;;;;;;4.22;2.80;;;17.50;75.90;;;;;;6273372;22;20011;-82
2021/06/08 01:27:26;;;;;;;3.78;2.97;;;17.50;75.80;;;;;;6275223;22;20003;-82
2021/06/08 01:29:53;;;;;;;5.93;3.70;;;17.50;75.80;;;;;;6274282;22;20000;-82
2021/06/08 01:32:27;;;;;;;12.15;4.25;;;17.40;75.90;;;;;;6274094;22;20061;-82
2021/06/08 01:34:55;;;;;;;6.28;3.03;;;17.30;75.90;;;;;;6274275;22;20296;-82
2021/06/08 01:37:21;;;;;;;6.07;3.42;;;17.40;75.90;;;;;;6274253;22;20000;-82
2021/06/08 01:39:47;;;;;;;4.65;2.60;;;17.40;75.90;;;;;;6275702;22;20068;-81
2021/06/08 01:42:14;;;;;;;3.33;2.17;;;17.40;75.90;;;;;;6274730;22;20649;-81
2021/06/08 01:44:46;;;;;;;8.63;2.42;;;17.50;75.80;;;;;;6275193;22;20004;-82
2021/06/08 01:47:12;;;;;;;5.88;2.28;;;17.40;75.60;;;;;;6276048;22;20000;-81
2021/06/08 01:49:38;;;;;;;4.03;1.85;;;17.50;75.40;;;;;;6273866;22;19999;-81
2021/06/08 01:52:19;;;;;;;1.90;1.70;;;17.40;75.40;;;;;;6274084;22;20007;-82
2021/06/08 01:54:59;;;;;;;2.42;1.85;;;17.50;75.50;;;;;;6275025;22;20003;-82
2021/06/08 01:57:35;;;;;;;5.20;2.58;;;17.40;75.40;;;;;;6273392;22;20101;-82
2021/06/08 02:00:05;;;;;;;5.18;2.20;;;17.50;75.50;;;;;;6273779;22;20018;-82
2021/06/08 02:02:50;;;;;;;4.63;2.13;;;17.50;75.40;;;;;;6274647;22;20017;-82
2021/06/08 02:05:34;;;;;;;5.03;2.05;;;17.50;75.50;;;;;;6276413;22;20669;-82
2021/06/08 02:08:18;;;;;;;9.05;1.98;;;17.50;75.50;;;;;;6274354;22;20010;-82
2021/06/08 02:11:05;;;;;;;6.13;1.90;;;17.50;75.50;;;;;;6273979;22;20007;-81
2021/06/08 02:13:40;;;;;;;3.03;2.15;;;17.50;75.70;;;;;;6274963;22;20011;-81
2021/06/08 02:16:37;;;;;;;2.08;1.65;;;17.50;75.60;;;;;;6274386;22;20122;-81
2021/06/08 02:19:04;;;;;;;2.60;1.85;;;17.50;75.20;;;;;;6248919;22;20695;-81
2021/06/08 02:21:35;;;;;;;4.88;2.00;;;17.40;75.80;;;;;;6273474;22;20086;-81
2021/06/08 02:24:03;;;;;;;4.65;2.00;;;17.50;75.40;;;;;;6273169;22;20053;-82
2021/06/08 02:26:31;;;;;;;3.35;2.70;;;17.40;75.40;;;;;;6274000;22;20035;-81
2021/06/08 02:28:59;;;;;;;3.80;3.40;;;17.40;75.60;;;;;;6273723;22;20010;-81
2021/06/08 02:31:26;;;;;;;6.57;4.00;;;17.30;75.90;;;;;;6247969;22;20458;-82
2021/06/08 02:33:54;;;;;;;4.85;4.35;;;17.30;76.20;;;;;;6274289;22;20007;-84
2021/06/08 02:36:20;;;;;;;6.50;4.78;;;17.40;76.30;;;;;;6273862;22;20039;-84
2021/06/08 02:38:48;;;;;;;6.75;6.00;;;17.50;76.40;;;;;;6273035;22;20346;-83
2021/06/08 02:41:14;;;;;;;7.03;5.75;;;17.40;76.50;;;;;;6273863;22;20008;-84
2021/06/08 02:43:43;;;;;;;10.35;4.30;;;17.40;76.70;;;;;;6273455;22;20007;-83
2021/06/08 02:46:09;;;;;;;5.60;4.38;;;17.40;76.60;;;;;;6273554;22;20000;-84
2021/06/08 02:48:38;;;;;;;7.55;4.97;;;17.50;76.80;;;;;;6273269;22;20435;-83
2021/06/08 02:51:06;;;;;;;6.78;6.07;;;17.50;76.70;;;;;;6272411;22;19996;-83
2021/06/08 02:53:33;;;;;;;8.25;6.18;;;17.50;76.90;;;;;;6273089;22;20000;-84
2021/06/08 02:55:59;;;;;;;9.07;5.00;;;17.50;77.10;;;;;;6272600;22;20042;-84
2021/06/08 02:58:26;;;;;;;6.47;4.43;;;17.50;76.90;;;;;;6272321;22;20436;-84
2021/06/08 03:00:52;;;;;;;5.75;4.82;;;17.50;76.80;;;;;;6272889;22;20003;-84
2021/06/08 03:03:26;;;;;;;7.03;4.60;;;17.60;76.70;;;;;;6274018;22;20000;-84
2021/06/08 03:06:00;;;;;;;5.32;4.45;;;17.50;76.70;;;;;;6273394;22;20003;-83
2021/06/08 03:08:32;;;;;;;6.20;5.60;;;17.50;76.60;;;;;;6274549;22;19996;-84
2021/06/08 03:11:00;;;;;;;7.37;5.57;;;17.50;76.60;;;;;;6273662;22;20555;-83
2021/06/08 03:13:26;;;;;;;7.45;5.55;;;17.60;76.60;;;;;;6271136;22;20410;-83
2021/06/08 03:15:58;;;;;;;9.50;6.68;;;17.60;76.60;;;;;;6274774;22;20007;-83
2021/06/08 03:18:28;;;;;;;6.72;4.53;;;17.60;77.00;;;;;;6273537;22;20311;-83
2021/06/08 03:21:18;;;;;;;10.57;5.47;;;17.60;76.40;;;;;;6274399;22;20449;-83
2021/06/08 03:23:51;;;;;;;8.35;5.88;;;17.70;76.00;;;;;;6258580;22;20029;-83
2021/06/08 03:26:22;;;;;;;5.47;4.95;;;17.70;76.00;;;;;;6272731;22;20004;-83
2021/06/08 03:28:51;;;;;;;6.38;5.22;;;17.70;75.80;;;;;;6272533;22;20004;-83
2021/06/08 03:31:19;;;;;;;2.67;2.38;;;17.70;75.70;;;;;;6271826;22;20013;-83
2021/06/08 03:33:46;;;;;;;5.82;3.47;;;17.80;75.40;;;;;;6274799;22;20056;-83
2021/06/08 03:36:13;;;;;;;4.50;4.10;;;17.70;75.30;;;;;;6273320;22;20399;-83
2021/06/08 03:38:40;;;;;;;6.57;4.03;;;17.70;75.40;;;;;;6274516;22;20004;-83
2021/06/08 03:41:07;;;;;;;7.00;5.07;;;17.70;75.50;;;;;;6272804;22;20011;-83
2021/06/08 03:43:35;;;;;;;6.90;4.72;;;17.70;75.40;;;;;;6272432;22;20334;-83
2021/06/08 03:46:00;;;;;;;8.30;4.18;;;17.70;75.40;;;;;;6272729;22;20003;-84
2021/06/08 03:48:27;;;;;;;4.47;4.03;;;17.70;75.50;;;;;;6271247;22;20345;-83
2021/06/08 03:51:05;;;;;;;6.18;3.47;;;17.70;75.60;;;;;;6272418;22;20430;-83
2021/06/08 03:53:32;;;;;;;4.00;3.60;;;17.70;75.60;;;;;;6273012;22;19996;-83
2021/06/08 03:55:58;;;;;;;5.00;3.30;;;17.70;75.60;;;;;;6272411;22;20019;-83
2021/06/08 03:58:24;;;;;;;4.38;3.42;;;17.70;75.60;;;;;;6274827;22;20060;-83
2021/06/08 04:00:53;;;;;;;4.38;3.80;;;17.60;75.60;;;;;;6273288;22;20003;-83
2021/06/08 04:03:19;;;;;;;7.13;4.20;;;17.60;75.70;;;;;;6273233;22;20003;-83
2021/06/08 04:05:47;;;;;;;7.65;3.80;;;17.60;75.80;;;;;;6272959;22;20012;-83
2021/06/08 04:08:18;;;;;;;8.10;4.57;;;17.60;76.10;;;;;;6272956;22;20430;-83
2021/06/08 04:10:48;;;;;;;6.93;4.50;;;17.70;76.30;;;;;;6272321;22;20137;-83
2021/06/08 04:13:17;;;;;;;6.82;4.85;;;17.70;76.40;;;;;;6272716;22;20077;-83
2021/06/08 04:15:47;;;;;;;7.05;4.88;;;17.60;76.40;;;;;;6272864;22;20000;-83
2021/06/08 04:18:20;;;;;;;5.72;5.13;;;17.70;76.70;;;;;;6272241;22;20008;-83
2021/06/08 04:20:47;;;;;;;6.60;4.82;;;17.70;76.70;;;;;;6272640;22;20085;-83
2021/06/08 04:23:13;;;;;;;7.35;4.93;;;17.70;76.70;;;;;;6274342;22;19999;-84
2021/06/08 04:25:39;;;;;;;6.78;5.75;;;17.70;76.50;;;;;;6271498;22;20000;-84
2021/06/08 04:28:05;;;;;;;7.43;5.82;;;17.70;76.70;;;;;;6271700;22;20034;-83
2021/06/08 04:30:30;;;;;;;6.78;6.07;;;17.70;76.70;;;;;;6272505;22;20415;-83
2021/06/08 04:32:56;;;;;;;8.70;5.65;;;17.70;76.70;;;;;;6272115;22;20057;-83
2021/06/08 04:35:22;;;;;;;7.40;6.53;;;17.70;76.80;;;;;;6273820;22;20004;-83
2021/06/08 04:37:48;;;;;;;7.10;6.35;;;17.70;76.70;;;;;;6272755;22;20011;-83
2021/06/08 04:40:15;;;;;;;5.95;5.32;;;17.70;76.60;;;;;;6273405;22;20000;-83
2021/06/08 04:42:47;;;;;;;7.30;5.28;;;17.80;76.70;;;;;;6272293;22;20062;-84
2021/06/08 04:45:14;;;;;;;7.40;5.57;;;17.80;76.60;;;;;;6272234;22;20012;-84
2021/06/08 04:47:40;;;;;;;7.68;5.65;;;17.80;76.60;;;;;;6272924;22;20014;-84
2021/06/08 04:50:12;;;;;;;6.72;5.10;;;17.80;76.50;;;;;;6272702;22;20417;-83
2021/06/08 04:52:38;;;;;;;6.57;5.97;;;17.90;76.60;;;;;;6271849;22;20299;-84
2021/06/08 04:55:10;;;;;;;7.90;6.18;;;17.90;76.50;;;;;;6272766;22;20004;-83
2021/06/08 04:57:36;;;;;;;9.00;5.68;;;17.90;76.50;;;;;;6272489;22;20028;-83
2021/06/08 05:00:16;;;;;;;8.68;5.20;;;18.00;76.50;;;;;;6272202;22;20018;-83
2021/06/08 05:02:44;;;;;;;8.00;5.32;;;18.00;76.60;;;;;;6270668;22;20026;-83
2021/06/08 05:05:17;;;;;;;7.28;6.25;;;18.00;76.50;;;;;;6272610;22;20319;-83
2021/06/08 05:07:49;;;;;;;7.20;5.95;;;17.90;76.50;;;;;;6271882;22;20003;-83
2021/06/08 05:10:16;;;;;;;8.57;6.40;;;18.00;76.60;;;;;;6274469;22;20004;-84
2021/06/08 05:12:44;;;;;;;9.68;6.10;;;18.00;76.60;;;;;;6272092;22;20025;-83
2021/06/08 05:15:13;;;;;;;9.15;5.68;;;18.00;77.30;;;;;;6273762;22;20045;-84
2021/06/08 05:17:40;;;;;;;8.60;5.70;;;18.10;76.60;;;;;;6274445;22;20040;-84
2021/06/08 05:20:09;;;;;;;8.25;6.25;;;18.10;76.70;;;;;;6275572;22;20454;-84
2021/06/08 05:22:35;;;;;;;9.35;5.88;;;18.10;76.60;;;;;;6271955;22;20341;-84
2021/06/08 05:25:02;;;;;;;6.15;5.55;;;18.00;76.60;;;;;;6274115;22;20010;-83
2021/06/08 05:27:29;;;;;;;7.35;6.18;;;18.10;76.60;;;;;;6273717;22;20071;-83
2021/06/08 05:30:13;;;;;;;9.05;6.40;;;18.10;76.60;;;;;;6213094;22;20062;-83
2021/06/08 05:32:39;;;;;;;8.18;5.85;;;18.20;76.60;;;;;;6273937;22;20000;-83
2021/06/08 05:35:08;;;;;;;7.93;6.65;;;18.10;76.40;;;;;;6273725;22;20008;-83
2021/06/08 05:37:40;;;;;;;7.72;6.30;;;18.10;76.40;;;;;;6274378;22;20032;-83
2021/06/08 05:40:07;;;;;;;9.60;6.28;;;18.10;76.60;;;;;;6273395;22;20012;-84
2021/06/08 05:42:33;;;;;;;6.90;6.20;;;18.10;76.60;;;;;;6272710;22;20035;-84
2021/06/08 05:45:05;;;;;;;6.95;5.93;;;18.10;76.70;;;;;;6276497;22;20023;-83
2021/06/08 05:47:31;;;;;;;6.78;6.07;;;18.10;76.60;;;;;;6273547;22;19996;-83
2021/06/08 05:49:57;;;;;;;8.45;6.82;;;18.10;76.50;;;;;;6274098;22;20026;-83
2021/06/08 05:52:23;;;;;;;9.70;6.88;;;18.10;76.50;;;;;;6272238;22;20000;-83
2021/06/08 05:54:50;;;;;;;7.47;6.78;;;18.10;76.60;;;;;;6273927;22;20446;-83
2021/06/08 05:57:16;;;;;;;8.23;6.70;;;18.20;76.70;;;;;;6273196;22;20103;-83
2021/06/08 05:59:42;;;;;;;7.10;6.40;;;18.10;76.40;;;;;;6276187;22;20403;-83
2021/06/08 06:02:12;;;;;;;10.45;6.80;;;18.20;76.80;;;;;;6273975;22;20103;-84
2021/06/08 06:04:38;;;;;;;6.95;6.25;;;18.20;76.90;;;;;;6274043;22;20031;-83
2021/06/08 06:07:04;;;;;;;9.48;8.45;;;18.30;76.70;;;;;;6274372;22;20004;-83
2021/06/08 06:09:32;;;;;;;7.95;7.15;;;18.30;76.70;;;;;;6274300;22;20000;-83
2021/06/08 06:11:58;;;;;;;7.20;6.38;;;18.20;76.80;;;;;;6273340;22;20007;-83
2021/06/08 06:14:28;;;;;;;8.95;6.63;;;18.30;76.80;;;;;;6275869;22;20362;-84
2021/06/08 06:16:54;;;;;;;7.68;5.97;;;18.30;76.70;;;;;;6273393;22;20004;-84
2021/06/08 06:19:27;;;;;;;6.03;4.63;;;18.40;76.40;;;;;;6274332;22;20004;-84
2021/06/08 06:21:53;;;;;;;;;;;18.40;76.10;;;;;;6274069;22;20035;-84
2021/06/08 06:24:19;;;;;;;8.18;6.35;;;18.50;75.80;;;;;;6273402;22;19906;-83
2021/06/08 06:26:45;;;;;;;6.32;5.72;;;18.50;75.70;;;;;;6273917;22;20087;-84
2021/06/08 06:29:15;;;;;;;6.90;6.20;;;18.50;75.70;;;;;;6274463;22;20031;-84
2021/06/08 06:31:45;;;;;;;8.98;6.72;;;18.50;75.40;;;;;;6274196;22;19995;-84
2021/06/08 06:34:16;;;;;;;6.03;5.43;;;18.50;75.30;;;;;;6274249;22;20011;-85
2021/06/08 06:36:45;;;;;;;9.95;7.03;;;18.50;75.10;;;;;;6274123;22;20023;-84
2021/06/08 06:39:18;;;;;;;9.65;6.80;;;18.60;75.10;;;;;;6273797;22;19996;-84
2021/06/08 06:41:48;;;;;;;10.95;7.53;;;18.60;74.80;;;;;;6272126;22;20009;-84
2021/06/08 06:44:14;;;;;;;9.20;7.85;;;18.60;75.30;;;;;;6272804;22;19999;-84
2021/06/08 06:46:40;;;;;;;8.35;6.10;;;18.70;74.80;;;;;;6272480;22;20026;-84
2021/06/08 06:49:07;;;;;;;9.82;7.70;;;18.70;74.60;;;;;;6273474;22;20085;-84
2021/06/08 06:51:33;;;;;;;9.52;7.05;;;18.70;74.30;;;;;;6273634;22;20006;-83
2021/06/08 06:54:02;;;;;;;7.43;5.85;;;18.70;74.70;;;;;;6273146;22;20011;-84
2021/06/08 06:56:28;;;;;;;10.23;6.85;;;18.80;74.40;;;;;;6273613;22;20086;-84
2021/06/08 06:58:56;;;;;;;10.45;7.30;;;18.90;74.30;;;;;;6274953;22;20053;-84
2021/06/08 07:01:23;;;;;;;7.80;5.82;;;18.90;74.10;;;;;;6273146;22;20011;-84
2021/06/08 07:03:53;;;;;;;7.07;6.05;;;19.00;74.00;;;;;;6272947;22;20015;-84
2021/06/08 07:06:19;;;;;;;6.25;5.53;;;19.00;74.10;;;;;;6275640;22;20000;-85
2021/06/08 07:08:50;;;;;;;9.52;5.63;;;19.10;74.20;;;;;;6273084;22;20003;-84
2021/06/08 07:11:16;;;;;;;6.80;6.10;;;19.10;74.20;;;;;;6273633;22;20000;-84
2021/06/08 07:13:43;;;;;;;6.15;5.30;;;19.10;74.10;;;;;;6272626;22;19999;-84
2021/06/08 07:16:09;;;;;;;9.93;6.50;;;19.10;74.10;;;;;;6273486;22;20349;-84
2021/06/08 07:18:35;;;;;;;8.68;5.68;;;19.20;74.20;;;;;;6272619;22;20003;-84
2021/06/08 07:21:05;;;;;;;6.72;5.95;;;19.30;74.10;;;;;;6273466;22;20396;-84
2021/06/08 07:23:32;;;;;;;9.25;6.40;;;19.40;74.00;;;;;;6274927;22;20003;-84
2021/06/08 07:26:00;;;;;;;10.82;5.85;;;19.50;73.80;;;;;;6274610;22;20015;-84
2021/06/08 07:28:30;;;;;;;12.95;5.55;;;19.50;73.80;;;;;;6273085;22;20326;-84
2021/06/08 07:30:56;;;;;;;6.90;6.15;;;19.70;74.00;;;;;;6272354;22;20011;-84
2021/06/08 07:33:27;;;;;;;6.60;5.00;;;20.00;74.00;;;;;;6273226;22;20004;-84
2021/06/08 07:36:10;;;;;;;5.15;4.45;;;20.10;73.30;;;;;;6273388;22;20445;-84
2021/06/08 07:38:50;;;;;;;6.30;5.15;;;20.20;72.60;;;;;;6272558;22;20004;-84
2021/06/08 07:41:25;;;;;;;8.25;5.38;;;20.20;72.10;;;;;;6272774;22;20018;-84
2021/06/08 07:43:59;;;;;;;7.30;4.65;;;20.20;72.00;;;;;;6273120;22;20004;-84
2021/06/08 07:46:26;;;;;;;6.00;3.40;;;20.40;71.50;;;;;;6273901;22;20004;-84
2021/06/08 07:48:54;;;;;;;4.68;3.33;;;20.50;71.10;;;;;;6272265;22;20000;-84
2021/06/08 07:51:22;;;;;;;8.93;3.85;;;20.70;70.70;;;;;;6272630;22;20173;-84
2021/06/08 07:53:50;;;;;;;5.30;3.92;;;20.80;69.90;;;;;;6273628;22;20002;-84
2021/06/08 07:56:16;;;;;;;4.82;3.75;;;20.90;69.60;;;;;;6271993;22;20701;-84
2021/06/08 07:58:42;;;;;;;5.95;4.20;;;20.90;69.30;;;;;;6273096;22;20507;-84
2021/06/08 08:01:08;;;;;;;4.30;3.70;;;20.90;69.00;;;;;;6272816;22;20011;-84
2021/06/08 08:03:35;;;;;;;7.70;4.28;;;20.90;68.70;;;;;;6272343;22;20342;-84
2021/06/08 08:06:05;;;;;;;4.15;3.75;;;20.80;68.40;;;;;;6272306;22;20061;-83
2021/06/08 08:08:32;;;;;;;4.95;3.80;;;20.70;68.30;;;;;;6272837;22;20003;-85
2021/06/08 08:10:59;;;;;;;5.78;3.95;;;20.80;68.60;;;;;;6272484;22;20004;-85
2021/06/08 08:13:27;;;;;;;5.20;3.50;;;21.00;68.30;;;;;;6273386;22;20365;-86
2021/06/08 08:15:54;;;;;;;8.30;3.28;;;21.10;67.70;;;;;;6273863;22;20011;-85
2021/06/08 08:18:23;;;;;;;7.07;3.33;;;21.20;67.20;;;;;;6272992;22;20035;-85
2021/06/08 08:20:58;;;;;;;5.05;3.53;;;21.20;66.60;;;;;;6272376;22;19999;-85
2021/06/08 08:23:27;;;;;;;8.07;3.28;;;21.40;66.50;;;;;;6272770;22;20015;-85
2021/06/08 08:25:58;;;;;;;4.75;3.80;;;21.40;66.20;;;;;;6272994;22;20008;-85
2021/06/08 08:28:25;;;;;;;3.92;2.95;;;21.40;65.80;;;;;;6272294;22;20014;-85
2021/06/08 08:30:52;;;;;;;8.07;3.00;;;21.40;65.70;;;;;;6272786;22;20091;-85
2021/06/08 08:33:20;;;;;;;6.10;3.10;;;21.50;65.40;;;;;;6273107;22;20007;-86
2021/06/08 08:35:46;;;;;;;4.78;2.38;;;21.40;64.70;;;;;;6273564;22;20142;-86
2021/06/08 08:38:13;;;;;;;6.65;2.08;;;21.50;64.70;;;;;;6273460;22;20438;-85
2021/06/08 08:40:39;;;;;;;4.65;2.45;;;21.60;64.60;;;;;;6273848;22;20053;-86
2021/06/08 08:43:05;;;;;;;3.40;2.05;;;21.80;64.00;;;;;;6273135;22;20740;-85
2021/06/08 08:45:32;;;;;;;5.07;2.30;;;21.90;63.50;;;;;;6272911;22;20026;-86
2021/06/08 08:47:58;;;;;;;3.65;1.80;;;22.00;62.80;;;;;;6273801;22;20004;-85
2021/06/08 08:50:25;;;;;;;1.95;1.77;;;21.90;61.90;;;;;;6275757;22;20311;-85
2021/06/08 08:52:57;;;;;;;5.53;1.40;;;21.90;61.70;;;;;;6276867;22;19999;-85
2021/06/08 08:55:24;;;;;;;;;;;21.90;61.60;;;;;;6274539;22;20003;-84
2021/06/08 08:57:50;;;;;;;1.95;1.65;;;21.90;61.80;;;;;;6276395;22;20367;-85
2021/06/08 09:00:24;;;;;;;1.75;1.20;;;22.00;61.30;;;;;;6274440;22;20003;-84
2021/06/08 09:02:55;;;;;;;2.42;1.25;;;22.00;60.60;;;;;;6275242;22;20086;-84
2021/06/08 09:05:26;;;;;;;4.45;1.50;;;22.10;60.10;;;;;;6275898;22;20007;-84
2021/06/08 09:07:55;;;;;;;2.03;1.70;;;22.20;60.20;;;;;;6274822;22;20330;-84
2021/06/08 09:10:24;;;;;;;2.05;1.38;;;22.30;60.00;;;;;;6275162;22;20000;-84
2021/06/08 09:12:53;;;;;;;7.18;1.15;;;22.60;60.10;;;;;;6275117;22;20049;-84
2021/06/08 09:15:18;;;;;;;7.90;1.50;;;22.70;59.40;;;;;;6275765;22;20008;-84
2021/06/08 09:17:44;;;;;;;2.92;1.50;;;22.80;59.40;;;;;;6275481;22;20438;-84
2021/06/08 09:20:14;;;;;;;2.78;1.23;;;23.00;59.90;;;;;;6275095;22;20016;-84
2021/06/08 09:23:08;;;;;;;1.73;1.17;;;23.10;59.10;;;;;;6275525;22;20004;-84
2021/06/08 09:25:37;;;;;;;1.48;1.17;;;23.30;58.50;;;;;;6275189;22;20003;-83
2021/06/08 09:28:40;;;;;;;1.90;1.33;;;23.50;58.10;;;;;;6275130;22;20393;-84
2021/06/08 09:31:26;;;;;;;2.92;1.30;;;23.50;57.70;;;;;;6275335;22;20000;-84
2021/06/08 09:33:53;;;;;;;2.85;1.25;;;23.60;57.60;;;;;;6275063;22;20011;-84
2021/06/08 09:36:28;;;;;;;1.05;0.95;;;23.60;57.90;;;;;;6274680;22;20003;-84
2021/06/08 09:39:02;;;;;;;1.02;0.85;;;23.80;57.20;;;;;;6274865;22;20095;-84
2021/06/08 09:41:49;;;;;;;1.27;0.95;;;23.90;57.30;;;;;;6274410;22;20000;-84
2021/06/08 09:44:17;;;;;;;1.35;0.98;;;23.90;56.50;;;;;;6275207;22;20008;-84
2021/06/08 09:46:48;;;;;;;0.85;0.80;;;24.00;56.40;;;;;;6276796;22;20007;-84
2021/06/08 09:49:20;;;;;;;0.80;0.80;;;24.10;55.90;;;;;;6274848;22;20086;-83
2021/06/08 09:52:00;;;;;;;1.05;0.95;;;24.20;56.10;;;;;;6275436;22;20069;-84
2021/06/08 09:54:26;;;;;;;1.55;1.40;;;24.20;55.20;;;;;;6275068;22;20000;-84
2021/06/08 09:57:16;;;;;;;3.03;1.20;;;24.20;55.70;;;;;;6274667;22;20458;-84
2021/06/08 09:59:55;;;;;;;1.58;1.05;;;24.30;54.70;;;;;;6276389;22;19996;-84
2021/06/08 10:02:35;;;;;;;1.63;1.20;;;24.30;54.50;;;;;;6274186;22;20087;-84
2021/06/08 10:05:19;;;;;;;1.70;1.30;;;24.30;54.10;;;;;;6275085;22;20503;-84
2021/06/08 10:07:45;;;;;;;2.67;1.23;;;24.40;53.70;;;;;;6274400;22;20011;-84
2021/06/08 10:10:16;;;;;;;2.20;1.25;;;24.40;53.70;;;;;;6274066;22;20000;-84
2021/06/08 10:13:05;;;;;;;2.22;1.85;;;24.60;54.40;;;;;;6274872;22;20342;-84
2021/06/08 10:15:34;;;;;;;2.80;1.88;;;24.80;54.30;;;;;;6273904;22;20008;-83
2021/06/08 10:18:09;;;;;;;1.92;1.63;;;24.90;54.10;;;;;;6274573;22;20039;-84
2021/06/08 10:20:39;;;;;;;2.67;1.70;;;25.00;53.80;;;;;;6283696;22;20003;-85
2021/06/08 10:23:26;;;;;;;8.60;2.28;;;25.00;53.90;;;;;;6298670;22;20055;-85
2021/06/08 10:26:08;;;;;;;5.03;2.25;;;25.10;53.70;;;;;;6297199;22;20425;-85
2021/06/08 10:28:34;;;;;;;4.32;2.33;;;25.20;53.70;;;;;;6280900;22;20004;-85
2021/06/08 10:31:00;;;;;;;3.03;2.20;;;25.20;53.50;;;;;;6275583;22;20129;-84
2021/06/08 10:33:27;;;;;;;3.63;2.22;;;25.20;53.10;;;;;;6275581;22;19995;-84
2021/06/08 10:35:54;;;;;;;4.90;2.13;;;25.30;53.10;;;;;;6274117;22;20445;-83
2021/06/08 10:38:20;;;;;;;2.58;2.25;;;25.50;52.30;;;;;;6272348;22;20402;-83
2021/06/08 10:40:50;;;;;;;7.57;2.38;;;25.60;52.00;;;;;;6273669;22;20012;-83
2021/06/08 10:43:19;;;;;;;2.58;1.88;;;25.70;51.90;;;;;;6273705;22;20015;-83
2021/06/08 10:45:45;;;;;;;3.42;2.40;;;25.80;51.80;;;;;;6274474;22;20004;-83
2021/06/08 10:48:17;;;;;;;2.17;1.85;;;25.80;51.30;;;;;;6273668;22;20010;-84
2021/06/08 10:50:48;;;;;;;2.60;1.90;;;26.00;51.50;;;;;;6274393;22;20029;-84
2021/06/08 10:53:32;;;;;;;3.75;2.17;;;26.10;51.10;;;;;;6273360;22;20000;-83
2021/06/08 10:55:59;;;;;;;4.07;2.05;;;26.20;51.00;;;;;;6275904;22;20160;-84
2021/06/08 10:58:50;;;;;;;6.20;2.00;;;26.10;51.20;;;;;;6274394;22;20054;-84
2021/06/08 11:01:35;;;;;;;2.63;2.05;;;26.20;50.80;;;;;;6274562;22;20042;-83
2021/06/08 11:04:13;;;;;;;3.13;2.30;;;26.30;51.10;;;;;;6274591;22;20342;-84
2021/06/08 11:06:59;;;;;;;3.15;2.10;;;26.50;50.60;;;;;;6274093;22;20012;-84
2021/06/08 11:09:26;;;;;;;2.47;1.92;;;26.60;50.40;;;;;;6274325;22;20486;-83
2021/06/08 11:11:54;;;;;;;3.65;2.20;;;26.60;50.20;;;;;;6275688;22;20000;-86
2021/06/08 11:17:08;;;;;;;4.38;2.00;;;26.70;49.90;;;;;;6276125;22;20007;-86
2021/06/08 11:19:54;;;;;;;2.10;1.90;;;26.80;50.10;;;;;;6274499;22;20086;-85
2021/06/08 11:22:40;;;;;;;2.83;2.45;;;26.80;48.50;;;;;;6274538;22;20440;-86
2021/06/08 11:25:26;;;;;;;4.05;2.20;;;26.80;49.40;;;;;;6252975;22;20050;-85
2021/06/08 11:27:57;;;;;;;3.17;2.20;;;27.00;49.10;;;;;;6273314;22;20384;-85
2021/06/08 11:30:24;;;;;;;2.90;2.53;;;27.10;48.70;;;;;;6273949;22;20003;-85
2021/06/08 11:32:50;;;;;;;3.72;2.65;;;27.00;48.80;;;;;;6275902;22;20007;-86
2021/06/08 11:35:42;;;;;;;3.95;2.90;;;27.10;49.00;;;;;;6275668;22;20007;-86
2021/06/08 11:38:23;;;;;;;4.25;2.80;;;27.20;48.40;;;;;;6268504;22;20406;-85
2021/06/08 11:40:58;;;;;;;3.53;2.60;;;27.30;47.90;;;;;;6273788;22;20078;-86
2021/06/08 11:43:23;;;;;;;4.18;2.97;;;27.30;47.80;;;;;;6274314;22;20049;-85
2021/06/08 11:46:13;;;;;;;2.95;2.65;;;27.30;47.80;;;;;;6273796;22;20026;-85
2021/06/08 11:48:43;;;;;;;4.22;2.45;;;27.40;47.40;;;;;;6273679;22;20003;-86
2021/06/08 11:51:15;;;;;;;3.25;2.55;;;27.50;47.60;;;;;;6273622;22;20003;-85
2021/06/08 11:54:00;;;;;;;;;;;27.60;47.50;;;;;;6274673;22;19999;-85
2021/06/08 11:56:44;;;;;;;2.92;2.50;;;27.70;47.80;;;;;;6273207;22;20283;-85
2021/06/08 11:59:10;;;;;;;3.88;2.53;;;27.90;47.00;;;;;;6273176;22;20007;-85
2021/06/08 12:01:48;;;;;;;2.65;2.20;;;27.70;46.90;;;;;;6274182;22;20039;-86
2021/06/08 12:04:15;;;;;;;2.50;2.30;;;27.80;46.40;;;;;;6272497;22;20008;-85
2021/06/08 12:07:09;;;;;;;3.05;2.40;;;27.90;46.80;;;;;;6273864;22;20434;-86
2021/06/08 12:09:46;;;;;;;2.78;2.25;;;28.00;46.30;;;;;;6273596;22;20341;-85
2021/06/08 12:12:14;;;;;;;3.03;2.38;;;27.80;45.60;;;;;;6274063;22;20010;-85
2021/06/08 12:14:58;;;;;;;2.53;2.33;;;27.60;45.90;;;;;;6275484;22;20488;-85
2021/06/08 12:17:36;;;;;;;2.80;2.60;;;27.30;45.90;;;;;;6275026;22;20000;-85
2021/06/08 12:20:03;;;;;;;4.68;2.95;;;27.20;46.20;;;;;;6274316;22;20445;-85
2021/06/08 12:22:30;;;;;;;3.45;2.25;;;27.20;45.90;;;;;;6273535;22;20114;-85
2021/06/08 12:24:56;;;;;;;3.00;2.70;;;27.30;45.30;;;;;;6273003;22;20008;-85
2021/06/08 12:27:44;;;;;;;2.40;2.20;;;27.30;45.70;;;;;;6272781;22;20066;-85
2021/06/08 12:30:13;;;;;;;6.50;3.08;;;27.60;45.80;;;;;;6272731;22;20096;-85
2021/06/08 12:32:40;;;;;;;3.92;2.45;;;27.60;46.10;;;;;;6273831;22;20426;-85
2021/06/08 12:35:23;;;;;;;2.88;2.45;;;27.70;46.10;;;;;;6273815;22;20061;-85
2021/06/08 12:37:49;;;;;;;3.08;2.78;;;27.80;45.60;;;;;;6273906;22;20011;-84
2021/06/08 12:40:17;;;;;;;4.28;2.45;;;27.90;45.50;;;;;;6273399;22;20504;-85
2021/06/08 12:42:43;;;;;;;5.70;2.50;;;28.00;46.00;;;;;;6274195;22;20004;-85
2021/06/08 12:45:10;;;;;;;2.72;2.53;;;28.10;45.70;;;;;;6273942;22;20034;-85
2021/06/08 12:47:36;;;;;;;3.55;2.55;;;28.00;44.80;;;;;;6275480;22;20023;-85
2021/06/08 12:50:11;;;;;;;2.88;2.67;;;27.90;44.70;;;;;;6274157;22;20000;-85
2021/06/08 12:52:37;;;;;;;5.05;2.53;;;27.90;44.60;;;;;;6273698;22;20405;-85
2021/06/08 12:55:11;;;;;;;5.32;2.90;;;27.90;45.10;;;;;;6274188;22;20004;-86
2021/06/08 12:57:37;;;;;;;4.00;2.38;;;28.00;44.50;;;;;;6273591;22;20110;-85
2021/06/08 13:00:14;;;;;;;4.88;2.28;;;28.00;44.40;;;;;;6273261;22;20007;-85
2021/06/08 13:02:40;;;;;;;5.70;2.63;;;28.00;44.10;;;;;;6272918;22;20004;-85
2021/06/08 13:05:09;;;;;;;2.42;2.22;;;27.80;44.10;;;;;;6273816;22;20007;-85
2021/06/08 13:07:38;;;;;;;3.03;2.72;;;27.60;44.10;;;;;;6273284;22;20414;-85